Terminal Aerodrome Forecast
Issued by NWS Pueblo, CO

Home | Current Version | Previous Version | Text Only | Print | Product List | Glossary On
Versions: 1 2 3 4 5 6 7 8 9 10 11 12 13 14 15 16 17 18 19 20
000
FTUS45 KPUB 272018 AAB
TAFCOS
TAF AMD
KCOS 272018Z 2720/2818 15013G23KT P6SM VCTS SCT080CB SCT250
      TEMPO 2720/2722 P6SM -TSRA BKN090CB
     FM280200 14012KT P6SM FEW110 SCT200
     FM280600 01014G24KT P6SM SCT200
     FM280900 36010KT P6SM SCT015
     FM281600 04010KT P6SM SCT100=

USA.gov is the U.S. government's official web portal to all federal, state and local government web resources and services.